createdAt,value
2023-03-15T00:01:16.100Z,100243.81
2023-03-15T00:03:43.819Z,100243.31
2023-03-15T00:06:11.013Z,100248.94
2023-03-15T00:08:38.052Z,100252.88
2023-03-15T00:11:04.636Z,100266.63
2023-03-15T00:13:31.743Z,100261.63
2023-03-15T00:16:00.768Z,100268.38
2023-03-15T00:18:27.864Z,100274.13
2023-03-15T00:20:54.971Z,100287.03
2023-03-15T00:23:21.833Z,100292.78
2023-03-15T00:25:49.553Z,100294.22
2023-03-15T00:28:16.181Z,100300.94
2023-03-15T00:30:43.579Z,100302.38
2023-03-15T00:33:13.845Z,100304.66
2023-03-15T00:35:42.451Z,100315.00
2023-03-15T00:38:09.513Z,100306.88
2023-03-15T00:40:37.349Z,100322.84
2023-03-15T00:43:04.096Z,100317.66
2023-03-15T00:45:30.723Z,100317.94
2023-03-15T00:47:57.130Z,100307.53
2023-03-15T00:50:25.561Z,100304.44
2023-03-15T00:52:51.897Z,100316.31
2023-03-15T00:55:19.863Z,100315.75
2023-03-15T00:57:46.930Z,100314.31
2023-03-15T01:00:16.931Z,100309.28
2023-03-15T01:02:43.654Z,100312.88
2023-03-15T01:05:11.515Z,100304.22
2023-03-15T01:07:37.995Z,100314.97
2023-03-15T01:10:06.863Z,100323.94
2023-03-15T01:12:34.054Z,100317.63
2023-03-15T01:15:02.803Z,100315.97
2023-03-15T01:17:29.240Z,100320.41
2023-03-15T01:19:56.082Z,100331.19
2023-03-15T01:22:22.491Z,100329.34
2023-03-15T01:24:48.862Z,100326.84
2023-03-15T01:27:15.403Z,100339.16
2023-03-15T01:29:41.902Z,100336.63
2023-03-15T01:32:08.768Z,100342.78
2023-03-15T01:34:36.320Z,100334.94
2023-03-15T01:37:05.515Z,100341.25
2023-03-15T01:39:31.963Z,100338.59
2023-03-15T01:41:58.613Z,100343.03
2023-03-15T01:44:49.388Z,100348.34
2023-03-15T01:47:15.948Z,100344.75
2023-03-15T01:49:44.629Z,100351.88
2023-03-15T01:52:16.098Z,100355.22
2023-03-15T01:54:54.181Z,100353.53
2023-03-15T01:57:29.528Z,100359.69
2023-03-15T02:00:01.905Z,100364.19
2023-03-15T02:02:29.391Z,100369.38
2023-03-15T02:05:11.260Z,100364.91
2023-03-15T02:07:50.145Z,100371.16
2023-03-15T02:10:20.610Z,100372.97
2023-03-15T02:12:51.757Z,100376.63
2023-03-15T02:15:18.614Z,100369.59
2023-03-15T02:17:47.397Z,100373.13
2023-03-15T02:20:45.052Z,100375.78
2023-03-15T02:23:17.640Z,100383.75
2023-03-15T02:25:54.304Z,100384.72
2023-03-15T02:28:21.592Z,100384.88
2023-03-15T02:30:48.819Z,100390.19
2023-03-15T02:33:22.754Z,100389.19
2023-03-15T02:35:49.219Z,100391.97
2023-03-15T02:38:15.599Z,100397.28
2023-03-15T02:40:41.937Z,100400.91
2023-03-15T02:43:20.731Z,100406.97
2023-03-15T02:45:47.872Z,100407.06
2023-03-15T02:48:14.835Z,100408.78
2023-03-15T02:50:41.280Z,100402.47
2023-03-15T02:53:08.041Z,100424.56
2023-03-15T02:55:34.647Z,100426.28
2023-03-15T02:58:01.862Z,100424.47
2023-03-15T03:00:28.844Z,100424.31
2023-03-15T03:02:55.675Z,100429.63
2023-03-15T03:05:22.335Z,100435.94
2023-03-15T03:07:50.133Z,100438.47
2023-03-15T03:10:19.512Z,100440.25
2023-03-15T03:12:46.674Z,100450.91
2023-03-15T03:15:13.600Z,100445.59
2023-03-15T03:17:40.040Z,100454.41
2023-03-15T03:20:08.319Z,100451.75
2023-03-15T03:22:35.170Z,100460.56
2023-03-15T03:25:02.524Z,100470.13
2023-03-15T03:27:29.554Z,100463.94
2023-03-15T03:29:56.413Z,100467.31
2023-03-15T03:32:22.911Z,100477.00
2023-03-15T03:34:49.345Z,100490.13
2023-03-15T03:37:19.797Z,100483.72
2023-03-15T03:39:46.334Z,100494.25
2023-03-15T03:42:14.363Z,100488.09
2023-03-15T03:44:41.551Z,100494.97
2023-03-15T03:47:08.443Z,100493.97
2023-03-15T03:49:34.940Z,100493.88
2023-03-15T03:52:01.703Z,100500.03
2023-03-15T03:54:28.625Z,100504.38
2023-03-15T03:56:55.055Z,100507.84
2023-03-15T03:59:21.484Z,100513.06
2023-03-15T04:01:48.359Z,100513.06
2023-03-15T04:04:14.811Z,100523.69
2023-03-15T04:06:45.742Z,100528.19
2023-03-15T04:09:14.014Z,100534.19
2023-03-15T04:11:42.650Z,100537.00
2023-03-15T04:14:10.849Z,100544.13
2023-03-15T04:16:37.518Z,100551.13
2023-03-15T04:19:04.365Z,100558.25
2023-03-15T04:21:33.968Z,100550.28
2023-03-15T04:24:03.466Z,100551.13
2023-03-15T04:26:29.998Z,100550.28
2023-03-15T04:28:58.267Z,100552.78
2023-03-15T04:31:27.130Z,100563.44
2023-03-15T04:33:54.605Z,100566.81
2023-03-15T04:36:23.814Z,100561.50
2023-03-15T04:38:50.670Z,100563.22
2023-03-15T04:41:18.473Z,100571.03
2023-03-15T04:43:44.856Z,100578.19
2023-03-15T04:46:11.527Z,100576.25
2023-03-15T04:48:37.944Z,100578.91
2023-03-15T04:51:04.491Z,100578.91
2023-03-15T04:53:30.876Z,100580.59
2023-03-15T04:55:57.844Z,100589.41
2023-03-15T04:58:24.295Z,100588.44
2023-03-15T05:00:52.499Z,100598.00
2023-03-15T05:03:18.906Z,100598.00
2023-03-15T05:05:45.840Z,100591.69
2023-03-15T05:08:12.287Z,100595.06
2023-03-15T05:10:38.934Z,100598.56
2023-03-15T05:13:05.261Z,100593.13
2023-03-15T05:15:31.748Z,100593.97
2023-03-15T05:17:58.435Z,100613.31
2023-03-15T05:20:25.919Z,100616.81
2023-03-15T05:22:55.176Z,100618.66
2023-03-15T05:25:22.070Z,100608.13
2023-03-15T05:27:48.684Z,100623.22
2023-03-15T05:30:16.226Z,100635.69
2023-03-15T05:32:44.527Z,100631.22
2023-03-15T05:35:12.356Z,100635.69
2023-03-15T05:37:38.668Z,100640.03
2023-03-15T05:40:08.133Z,100651.66
2023-03-15T05:42:34.846Z,100650.66
2023-03-15T05:45:01.233Z,100653.47
2023-03-15T05:47:27.625Z,100663.25
2023-03-15T05:49:54.054Z,100661.56
2023-03-15T05:52:20.562Z,100672.19
2023-03-15T05:54:47.027Z,100685.59
2023-03-15T05:57:13.479Z,100692.63
2023-03-15T05:59:39.988Z,100695.41
2023-03-15T06:02:06.730Z,100707.88
2023-03-15T06:04:33.345Z,100705.19
2023-03-15T06:06:59.818Z,100715.00
2023-03-15T06:09:26.310Z,100715.00
2023-03-15T06:11:53.597Z,100720.31
2023-03-15T06:14:20.022Z,100732.63
2023-03-15T06:16:46.430Z,100724.66
2023-03-15T06:19:13.033Z,100727.31
2023-03-15T06:21:39.436Z,100733.47
2023-03-15T06:24:06.544Z,100739.66
2023-03-15T06:26:32.930Z,100737.00
2023-03-15T06:28:59.277Z,100739.66
2023-03-15T06:31:25.727Z,100738.69
2023-03-15T06:33:52.077Z,100742.31
2023-03-15T06:36:18.589Z,100749.31
2023-03-15T06:38:45.076Z,100747.50
2023-03-15T06:41:12.403Z,100753.66
2023-03-15T06:43:38.944Z,100765.16
2023-03-15T06:46:05.339Z,100771.31
2023-03-15T06:48:31.946Z,100770.50
2023-03-15T06:50:58.394Z,100774.00
2023-03-15T06:53:24.928Z,100773.00
2023-03-15T06:55:52.212Z,100782.81
2023-03-15T06:58:18.632Z,100785.31
2023-03-15T07:00:45.033Z,100796.69
2023-03-15T07:03:11.593Z,100791.38
2023-03-15T07:05:37.918Z,100796.59
2023-03-15T07:08:04.675Z,100802.75
2023-03-15T07:10:31.200Z,100802.66
2023-03-15T07:12:57.811Z,100800.81
2023-03-15T07:15:24.355Z,100808.56
2023-03-15T07:17:50.803Z,100808.31
2023-03-15T07:20:17.327Z,100823.06
2023-03-15T07:22:45.541Z,100828.88
2023-03-15T07:25:11.953Z,100834.69
2023-03-15T07:27:38.329Z,100834.19
2023-03-15T07:30:05.239Z,100833.84
2023-03-15T07:32:32.702Z,100844.09
2023-03-15T07:35:00.623Z,100847.22
2023-03-15T07:37:29.177Z,100845.88
2023-03-15T07:39:55.719Z,100861.38
2023-03-15T07:42:22.101Z,100852.91
2023-03-15T07:44:48.556Z,100858.72
2023-03-15T07:49:41.543Z,100861.75
2023-03-15T07:52:08.451Z,100869.59
2023-03-15T07:54:34.904Z,100868.53
2023-03-15T07:57:01.329Z,100878.06
2023-03-15T07:59:27.895Z,100883.16
2023-03-15T08:01:54.555Z,100884.59
2023-03-15T08:04:21.245Z,100894.91
2023-03-15T08:06:47.764Z,100892.72
2023-03-15T08:09:14.111Z,100898.38
2023-03-15T08:11:41.668Z,100898.84
2023-03-15T08:14:09.144Z,100912.88
2023-03-15T08:16:35.582Z,100903.81
2023-03-15T08:19:02.005Z,100911.66
2023-03-15T08:21:28.353Z,100912.53
2023-03-15T08:23:54.680Z,100912.53
2023-03-15T08:26:21.086Z,100918.69
2023-03-15T08:28:47.451Z,100918.81
2023-03-15T08:31:14.073Z,100916.13
2023-03-15T08:33:41.001Z,100927.63
2023-03-15T08:36:07.525Z,100932.97
2023-03-15T08:38:34.499Z,100931.19
2023-03-15T08:41:00.852Z,100943.50
2023-03-15T08:43:27.213Z,100947.88
2023-03-15T08:46:00.967Z,100962.75
2023-03-15T08:48:28.269Z,100955.50
2023-03-15T08:50:54.664Z,100958.88
2023-03-15T08:53:21.008Z,100956.94
2023-03-15T08:55:48.763Z,100961.03
2023-03-15T08:58:15.286Z,100970.59
2023-03-15T09:00:41.632Z,100975.56
2023-03-15T09:03:08.685Z,100969.97
2023-03-15T09:05:36.415Z,100976.63
2023-03-15T09:08:02.879Z,100975.28
2023-03-15T09:10:29.332Z,100974.78
2023-03-15T09:12:55.926Z,100979.72
2023-03-15T09:15:22.470Z,100991.72
2023-03-15T09:17:51.895Z,100983.31
2023-03-15T09:20:21.885Z,100990.84
2023-03-15T09:22:58.461Z,100983.97
2023-03-15T09:25:25.854Z,100992.44
2023-03-15T09:27:52.657Z,100992.66
2023-03-15T09:30:19.917Z,100999.31
2023-03-15T09:32:46.439Z,100996.97
2023-03-15T09:35:18.937Z,100999.00
2023-03-15T09:37:45.717Z,100997.34
2023-03-15T09:40:18.682Z,101001.94
2023-03-15T09:42:50.829Z,101002.84
2023-03-15T09:45:43.082Z,100993.63
2023-03-15T09:48:18.117Z,100986.34
2023-03-15T09:50:50.798Z,100988.69
2023-03-15T09:53:32.081Z,100998.03
2023-03-15T09:55:58.499Z,100995.00
2023-03-15T09:58:32.632Z,100993.06
2023-03-15T10:01:04.282Z,100998.13
2023-03-15T10:03:42.667Z,101000.84
2023-03-15T10:06:26.092Z,100988.59
2023-03-15T10:08:57.599Z,100990.88
2023-03-15T10:11:40.430Z,100994.09
2023-03-15T10:14:47.960Z,100997.31
2023-03-15T10:17:21.124Z,100999.47
2023-03-15T10:19:49.657Z,100990.03
2023-03-15T10:22:26.019Z,100995.50
2023-03-15T10:25:07.578Z,100987.75
2023-03-15T10:27:41.530Z,100986.63
2023-03-15T10:30:26.212Z,101000.59
2023-03-15T10:32:59.075Z,100998.75
2023-03-15T10:35:25.816Z,101000.88
2023-03-15T10:37:52.924Z,100996.50
2023-03-15T10:40:39.320Z,100998.44
2023-03-15T10:43:12.208Z,100999.16
2023-03-15T10:45:39.554Z,101013.53
2023-03-15T10:48:07.542Z,101003.69
2023-03-15T10:50:34.241Z,101010.59
2023-03-15T10:53:08.702Z,101018.31
2023-03-15T10:55:44.296Z,101017.63
2023-03-15T10:58:39.391Z,101012.25
2023-03-15T11:01:09.494Z,101014.78
2023-03-15T11:03:37.515Z,101019.84
2023-03-15T11:06:19.586Z,101022.34
2023-03-15T11:08:46.046Z,101027.13
2023-03-15T11:11:12.445Z,101011.59
2023-03-15T11:13:41.754Z,101030.91
2023-03-15T11:16:14.388Z,101024.56
2023-03-15T11:19:01.505Z,101032.75
2023-03-15T11:21:33.673Z,101034.72
2023-03-15T11:24:03.103Z,101041.38
2023-03-15T11:26:34.715Z,101040.66
2023-03-15T11:29:06.464Z,101039.97
2023-03-15T11:31:33.974Z,101040.97
2023-03-15T11:34:06.172Z,101043.47
2023-03-15T11:36:36.084Z,101042.22
2023-03-15T11:39:09.057Z,101052.06
2023-03-15T11:41:47.546Z,101054.59
2023-03-15T11:44:25.610Z,101045.13
2023-03-15T11:47:04.885Z,101058.31
2023-03-15T11:49:37.538Z,101055.75
2023-03-15T11:52:05.012Z,101060.38
2023-03-15T11:54:32.362Z,101063.28
2023-03-15T11:57:07.607Z,101064.25
2023-03-15T11:59:38.124Z,101062.63
2023-03-15T12:02:10.972Z,101057.22
2023-03-15T12:04:51.357Z,101058.16
2023-03-15T12:07:18.479Z,101060.25
2023-03-15T12:09:47.982Z,101068.38
2023-03-15T12:12:26.325Z,101072.16
2023-03-15T12:15:05.343Z,101063.78
2023-03-15T12:17:37.389Z,101062.78
2023-03-15T12:20:12.680Z,101060.81
2023-03-15T12:22:51.600Z,101065.03
2023-03-15T12:25:31.163Z,101064.56
2023-03-15T12:27:59.514Z,101060.56
2023-03-15T12:30:33.266Z,101059.94
2023-03-15T12:33:02.282Z,101050.59
2023-03-15T12:35:38.295Z,101054.34
2023-03-15T12:38:12.578Z,101066.00
2023-03-15T12:40:55.118Z,101061.69
2023-03-15T12:43:43.672Z,101052.84
2023-03-15T12:46:44.039Z,101045.72
2023-03-15T12:49:14.603Z,101053.16
2023-03-15T12:51:54.768Z,101057.75
2023-03-15T12:54:23.694Z,101050.03
2023-03-15T12:56:57.336Z,101049.56
2023-03-15T12:59:42.233Z,101050.94
2023-03-15T13:02:39.558Z,101050.47
2023-03-15T13:05:28.850Z,101044.75
2023-03-15T13:08:19.748Z,101055.84
2023-03-15T13:11:31.312Z,101046.56
2023-03-15T13:14:27.138Z,101048.03
2023-03-15T13:17:36.095Z,101048.03
2023-03-15T13:20:35.706Z,101054.47
2023-03-15T13:23:30.763Z,101041.22
2023-03-15T13:26:15.684Z,101045.97
2023-03-15T13:28:49.306Z,101051.22
2023-03-15T13:31:24.769Z,101042.53
2023-03-15T13:34:00.125Z,101048.09
2023-03-15T13:36:46.244Z,101050.66
2023-03-15T13:39:24.301Z,101041.47
2023-03-15T13:41:58.461Z,101050.06
2023-03-15T13:44:26.045Z,101056.63
2023-03-15T13:46:53.557Z,101045.56
2023-03-15T13:49:20.651Z,101059.53
2023-03-15T13:51:49.337Z,101056.50
2023-03-15T13:54:25.730Z,101058.22
2023-03-15T13:57:15.568Z,101058.88
2023-03-15T13:59:49.836Z,101061.56
2023-03-15T14:02:19.632Z,101055.66
2023-03-15T14:04:57.084Z,101060.56
2023-03-15T14:07:46.581Z,101059.19
2023-03-15T14:10:25.312Z,101070.63
2023-03-15T14:12:52.669Z,101076.28
2023-03-15T14:15:18.935Z,101079.94
2023-03-15T14:18:01.001Z,101079.22
2023-03-15T14:20:39.862Z,101087.59
2023-03-15T14:23:09.753Z,101085.31
2023-03-15T14:25:37.034Z,101094.50
2023-03-15T14:28:04.829Z,101085.69
2023-03-15T14:30:36.078Z,101089.03
2023-03-15T14:33:05.053Z,101085.59
2023-03-15T14:35:37.674Z,101082.81
2023-03-15T14:38:26.954Z,101091.47
2023-03-15T14:40:54.073Z,101080.50
2023-03-15T14:43:20.710Z,101082.38
2023-03-15T14:45:48.985Z,101089.41
2023-03-15T14:48:28.932Z,101091.66
2023-03-15T14:50:56.237Z,101089.16
2023-03-15T14:53:26.027Z,101083.88
2023-03-15T14:55:52.580Z,101091.34
2023-03-15T14:58:20.948Z,101092.38
2023-03-15T15:00:53.792Z,101100.66
2023-03-15T15:03:28.783Z,101100.22
2023-03-15T15:05:55.428Z,101099.88
2023-03-15T15:08:25.267Z,101099.72
2023-03-15T15:10:55.335Z,101099.56
2023-03-15T15:13:29.668Z,101096.88
2023-03-15T15:15:57.156Z,101104.25
2023-03-15T15:18:25.852Z,101103.41
2023-03-15T15:20:55.367Z,101110.09
2023-03-15T15:23:31.182Z,101111.09
2023-03-15T15:26:01.160Z,101105.22
2023-03-15T15:28:37.552Z,101111.75
2023-03-15T15:31:07.549Z,101105.53
2023-03-15T15:33:34.473Z,101108.22
2023-03-15T15:36:01.289Z,101110.72
2023-03-15T15:38:33.184Z,101110.41
2023-03-15T15:40:59.721Z,101105.03
2023-03-15T15:43:26.048Z,101111.25
2023-03-15T15:45:52.474Z,101110.59
2023-03-15T15:48:18.837Z,101106.38
2023-03-15T15:50:45.182Z,101106.84
2023-03-15T15:53:16.893Z,101109.84
2023-03-15T15:55:44.316Z,101108.78
2023-03-15T15:58:12.506Z,101113.03
2023-03-15T16:00:39.025Z,101108.28
2023-03-15T16:03:14.761Z,101110.59
2023-03-15T16:05:41.522Z,101104.84
2023-03-15T16:08:20.433Z,101114.22
2023-03-15T16:10:46.824Z,101112.84
2023-03-15T16:13:13.237Z,101113.16
2023-03-15T16:15:39.598Z,101124.91
2023-03-15T16:18:12.540Z,101112.44
2023-03-15T16:20:40.649Z,101120.81
2023-03-15T16:23:10.601Z,101118.44
2023-03-15T16:25:37.045Z,101123.97
2023-03-15T16:28:05.276Z,101114.38
2023-03-15T16:30:33.427Z,101120.88
2023-03-15T16:33:00.206Z,101122.22
2023-03-15T16:35:35.064Z,101127.72
2023-03-15T16:38:04.855Z,101123.66
2023-03-15T16:40:35.241Z,101134.53
2023-03-15T16:43:01.622Z,101131.31
2023-03-15T16:45:28.061Z,101132.47
2023-03-15T16:47:56.445Z,101131.78
2023-03-15T16:50:23.552Z,101135.59
2023-03-15T16:52:54.872Z,101137.59
2023-03-15T16:55:26.725Z,101133.66
2023-03-15T16:57:53.293Z,101134.94
2023-03-15T17:00:20.602Z,101136.25
2023-03-15T17:02:49.590Z,101142.91
2023-03-15T17:05:18.973Z,101141.66
2023-03-15T17:07:50.790Z,101147.34
2023-03-15T17:10:25.893Z,101147.25
2023-03-15T17:12:54.091Z,101147.84
2023-03-15T17:15:24.073Z,101150.38
2023-03-15T17:17:52.201Z,101152.97
2023-03-15T17:20:22.120Z,101151.19
2023-03-15T17:22:49.772Z,101159.09
2023-03-15T17:25:16.949Z,101154.59
2023-03-15T17:27:44.538Z,101159.81
2023-03-15T17:30:37.504Z,101158.25
2023-03-15T17:33:05.304Z,101162.81
2023-03-15T17:35:35.664Z,101165.50
2023-03-15T17:38:04.120Z,101163.81
2023-03-15T17:40:33.532Z,101176.34
2023-03-15T17:43:02.055Z,101172.81
2023-03-15T17:45:31.437Z,101176.34
2023-03-15T17:47:58.008Z,101175.47
2023-03-15T17:50:27.480Z,101186.03
2023-03-15T17:53:02.388Z,101185.84
2023-03-15T17:55:30.759Z,101182.31
2023-03-15T17:58:11.584Z,101182.13
2023-03-15T18:00:38.149Z,101188.31
2023-03-15T18:03:04.744Z,101190.81
2023-03-15T18:05:31.332Z,101190.78
2023-03-15T18:07:59.953Z,101194.09
2023-03-15T18:10:34.342Z,101201.00
2023-03-15T18:13:01.312Z,101190.09
2023-03-15T18:15:28.249Z,101197.06
2023-03-15T18:17:54.621Z,101197.72
2023-03-15T18:20:24.205Z,101198.50
2023-03-15T18:22:51.469Z,101192.81
2023-03-15T18:25:22.052Z,101197.13
2023-03-15T18:27:49.611Z,101193.16
2023-03-15T18:30:22.186Z,101203.50
2023-03-15T18:32:49.479Z,101202.31
2023-03-15T18:35:19.629Z,101204.53
2023-03-15T18:37:46.592Z,101206.13
2023-03-15T18:40:15.505Z,101203.97
2023-03-15T18:42:42.992Z,101207.16
2023-03-15T18:45:25.517Z,101208.75
2023-03-15T18:47:51.914Z,101217.38
2023-03-15T18:50:19.459Z,101218.97
2023-03-15T18:52:46.577Z,101223.13
2023-03-15T18:55:14.694Z,101225.56
2023-03-15T18:57:41.568Z,101219.00
2023-03-15T19:00:13.319Z,101222.44
2023-03-15T19:02:45.605Z,101226.69
2023-03-15T19:05:13.808Z,101227.41
2023-03-15T19:07:40.542Z,101233.34
2023-03-15T19:10:15.938Z,101232.00
2023-03-15T19:12:44.714Z,101232.34
2023-03-15T19:15:14.978Z,101237.19
2023-03-15T19:17:41.960Z,101234.03
2023-03-15T19:20:11.907Z,101238.03
2023-03-15T19:22:39.089Z,101232.56
2023-03-15T19:25:06.728Z,101243.69
2023-03-15T19:27:33.128Z,101237.84
2023-03-15T19:29:59.485Z,101237.34
2023-03-15T19:32:32.335Z,101243.91
2023-03-15T19:34:58.694Z,101244.25
2023-03-15T19:37:25.077Z,101244.47
2023-03-15T19:39:52.030Z,101236.72
2023-03-15T19:42:18.395Z,101236.09
2023-03-15T19:44:47.273Z,101245.28
2023-03-15T19:47:13.729Z,101244.69
2023-03-15T19:49:41.098Z,101242.34
2023-03-15T19:52:07.507Z,101248.88
2023-03-15T19:54:34.091Z,101246.44
2023-03-15T19:57:01.146Z,101247.66
2023-03-15T19:59:27.910Z,101245.16
2023-03-15T20:01:54.734Z,101250.72
2023-03-15T20:04:21.807Z,101261.59
2023-03-15T20:06:48.316Z,101261.81
2023-03-15T20:09:15.175Z,101264.81
2023-03-15T20:11:42.053Z,101261.53
2023-03-15T20:14:08.731Z,101260.06
2023-03-15T20:16:35.609Z,101261.25
2023-03-15T20:19:02.318Z,101258.06
2023-03-15T20:21:29.698Z,101269.78
2023-03-15T20:23:56.377Z,101273.63
2023-03-15T20:26:23.844Z,101269.50
2023-03-15T20:28:50.310Z,101266.19
2023-03-15T20:31:18.535Z,101265.56
2023-03-15T20:33:48.982Z,101264.97
2023-03-15T20:36:16.385Z,101271.44
2023-03-15T20:38:44.360Z,101277.94
2023-03-15T20:41:13.924Z,101267.50
2023-03-15T20:43:41.468Z,101279.34
2023-03-15T20:46:09.664Z,101269.88
2023-03-15T20:48:36.751Z,101265.63
2023-03-15T20:51:04.091Z,101270.31
2023-03-15T20:53:35.735Z,101269.56
2023-03-15T20:56:03.405Z,101271.59
2023-03-15T20:58:29.820Z,101267.44
2023-03-15T21:01:10.274Z,101274.78
2023-03-15T21:03:37.007Z,101273.28
2023-03-15T21:06:05.737Z,101278.06
2023-03-15T21:08:33.236Z,101272.34
2023-03-15T21:10:59.914Z,101280.53
2023-03-15T21:13:26.632Z,101276.47
2023-03-15T21:15:54.037Z,101273.09
2023-03-15T21:18:23.016Z,101274.16
2023-03-15T21:20:58.040Z,101277.03
2023-03-15T21:23:27.750Z,101277.22
2023-03-15T21:25:55.612Z,101270.31
2023-03-15T21:28:23.209Z,101270.44
2023-03-15T21:30:53.462Z,101275.84
2023-03-15T21:33:21.679Z,101275.06
2023-03-15T21:35:48.157Z,101282.19
2023-03-15T21:38:15.424Z,101269.03
2023-03-15T21:40:46.062Z,101273.38
2023-03-15T21:43:13.819Z,101278.78
2023-03-15T21:45:41.994Z,101280.59
2023-03-15T21:48:08.732Z,101288.56
2023-03-15T21:50:36.405Z,101288.56
2023-03-15T21:53:03.629Z,101293.03
2023-03-15T21:55:33.429Z,101284.22
2023-03-15T21:58:04.587Z,101281.44
2023-03-15T22:00:32.342Z,101278.06
2023-03-15T22:02:58.715Z,101280.72
2023-03-15T22:05:25.084Z,101273.69
2023-03-15T22:07:51.416Z,101275.50
2023-03-15T22:10:19.624Z,101273.69
2023-03-15T22:12:45.971Z,101271.16
2023-03-15T22:15:14.739Z,101267.53
2023-03-15T22:17:41.135Z,101266.69
2023-03-15T22:20:10.020Z,101264.88
2023-03-15T22:22:36.604Z,101265.84
2023-03-15T22:25:03.386Z,101264.13
2023-03-15T22:27:29.724Z,101269.44
2023-03-15T22:29:56.185Z,101264.13
2023-03-15T22:32:22.710Z,101272.22
2023-03-15T22:34:49.059Z,101260.75
2023-03-15T22:37:15.421Z,101264.34
2023-03-15T22:39:42.842Z,101270.63
2023-03-15T22:42:09.409Z,101262.66
2023-03-15T22:44:35.761Z,101276.78
2023-03-15T22:47:02.095Z,101267.97
2023-03-15T22:49:28.530Z,101261.81
2023-03-15T22:51:54.872Z,101260.94
2023-03-15T22:54:21.397Z,101254.69
2023-03-15T22:56:47.736Z,101253.84
2023-03-15T22:59:14.061Z,101267.84
2023-03-15T23:01:40.941Z,101260.00
2023-03-15T23:04:07.405Z,101252.03
2023-03-15T23:06:33.762Z,101263.50
2023-03-15T23:09:00.107Z,101265.31
2023-03-15T23:11:26.436Z,101267.00
2023-03-15T23:13:53.137Z,101262.66
2023-03-15T23:16:19.563Z,101265.31
2023-03-15T23:18:45.956Z,101255.63
2023-03-15T23:21:14.537Z,101258.19
2023-03-15T23:23:42.960Z,101254.69
2023-03-15T23:26:09.741Z,101252.03
2023-03-15T23:28:36.303Z,101249.38
2023-03-15T23:31:05.420Z,101253.72
2023-03-15T23:33:35.666Z,101248.41
2023-03-15T23:36:04.014Z,101248.41
2023-03-15T23:38:30.435Z,101248.41
2023-03-15T23:40:58.964Z,101247.47
2023-03-15T23:43:26.049Z,101257.13
2023-03-15T23:45:56.947Z,101253.50
2023-03-15T23:48:23.686Z,101256.16
2023-03-15T23:50:58.284Z,101263.91
2023-03-15T23:53:25.466Z,101256.91
2023-03-15T23:55:52.560Z,101262.97
2023-03-15T23:58:19.724Z,101262.97
